Time;durP1;ratioP1;P1;durP2;ratioP2;P2;SDS_P1;SDS_P2;PMS_P1;PMS_P2;Temp;Humidity;BMP_temperature;BMP_pressure;BME280_temperature;BME280_humidity;BME280_pressure;Samples;Min_cycle;Max_cycle;Signal;HPM_P1;HPM_P2
2023/06/23 00:00:13;;;;;;;15.57;13.48;;;;;;;27.10;60.63;99533.81;4417221;32;20116;-92
2023/06/23 00:02:41;;;;;;;15.48;12.18;;;;;;;27.05;60.64;99533.47;4406340;32;20109;-92
2023/06/23 00:05:08;;;;;;;17.80;12.35;;;;;;;27.06;60.63;99534.31;4416055;32;20086;-92
2023/06/23 00:07:34;;;;;;;14.93;12.20;;;;;;;27.02;60.63;99530.28;4400748;32;20155;-92
2023/06/23 00:10:00;;;;;;;15.55;12.37;;;;;;;27.02;60.63;99525.78;4415438;32;20125;-91
2023/06/23 00:12:25;;;;;;;21.35;13.05;;;;;;;26.95;60.64;99524.69;4403336;32;20101;-91
2023/06/23 00:14:51;;;;;;;16.70;11.82;;;;;;;26.87;60.62;99527.31;4397629;32;33555;-90
2023/06/23 00:17:16;;;;;;;16.10;12.45;;;;;;;26.92;60.63;99525.00;4410859;32;20426;-90
2023/06/23 00:19:42;;;;;;;16.65;12.68;;;;;;;26.85;60.62;99516.81;4404121;32;20131;-89
2023/06/23 00:22:07;;;;;;;14.75;12.13;;;;;;;26.93;60.62;99513.31;4404716;32;20405;-90
2023/06/23 00:24:32;;;;;;;14.60;12.98;;;;;;;26.91;60.63;99513.50;4410906;32;20478;-89
2023/06/23 00:27:00;;;;;;;13.93;12.30;;;;;;;26.80;60.61;99520.94;4423686;32;22123;-90
2023/06/23 00:29:26;;;;;;;18.05;12.82;;;;;;;26.76;60.62;99527.63;4425748;32;20105;-89
2023/06/23 00:31:51;;;;;;;16.98;12.73;;;;;;;26.73;60.62;99530.56;4415687;32;20147;-90
2023/06/23 00:34:17;;;;;;;15.13;12.55;;;;;;;26.66;60.61;99526.88;4412436;32;20105;-90
2023/06/23 00:36:42;;;;;;;18.05;12.25;;;;;;;26.74;60.62;99530.44;4414857;32;20146;-91
2023/06/23 00:39:08;;;;;;;16.92;12.88;;;;;;;26.70;60.61;99526.38;4415981;32;20094;-91
2023/06/23 00:41:34;;;;;;;15.95;12.73;;;;;;;26.69;60.61;99531.88;4391732;32;20097;-91
2023/06/23 00:43:59;;;;;;;16.45;13.05;;;;;;;26.65;60.61;99528.69;4403508;32;20461;-91
2023/06/23 00:46:25;;;;;;;17.17;12.98;;;;;;;26.69;60.62;99535.37;4387275;32;20456;-90
2023/06/23 00:48:50;;;;;;;16.85;12.80;;;;;;;26.62;60.61;99527.19;4393605;32;20144;-89
2023/06/23 00:51:16;;;;;;;21.73;12.43;;;;;;;26.50;60.61;99536.47;4424844;32;20135;-91
2023/06/23 00:53:47;;;;;;;19.75;13.30;;;;;;;26.53;60.60;99529.97;4402771;32;20131;-91
2023/06/23 00:56:17;;;;;;;19.12;12.23;;;;;;;26.51;60.61;99519.44;4413296;32;20102;-91
2023/06/23 00:58:42;;;;;;;17.02;12.85;;;;;;;26.44;60.60;99515.69;4398536;32;20102;-90
2023/06/23 01:01:10;;;;;;;18.27;12.07;;;;;;;26.44;60.60;99505.03;4415839;32;20158;-91
2023/06/23 01:03:36;;;;;;;17.02;12.23;;;;;;;26.53;60.60;99506.78;4404102;32;20081;-88
2023/06/23 01:06:17;;;;;;;15.75;13.57;;;;;;;26.44;60.60;99499.69;4412743;32;20484;-89
2023/06/23 01:08:47;;;;;;;15.52;12.07;;;;;;;26.48;60.61;99493.03;4414202;32;20591;-88
2023/06/23 01:11:23;;;;;;;16.05;12.82;;;;;;;26.42;60.60;99495.50;4413266;32;20101;-89
2023/06/23 01:13:52;;;;;;;17.00;12.80;;;;;;;26.47;60.60;99494.03;4414728;32;20094;-89
2023/06/23 01:16:21;;;;;;;16.95;12.52;;;;;;;26.33;60.61;99493.75;4450660;32;20058;-89
2023/06/23 01:19:09;;;;;;;17.40;13.62;;;;;;;26.27;60.60;99489.87;4418937;32;20093;-88
2023/06/23 01:22:13;;;;;;;19.15;12.60;;;;;;;26.27;60.59;99484.53;4418037;32;20110;-88
2023/06/23 01:25:04;;;;;;;16.05;11.63;;;;;;;26.19;60.59;99487.97;4417707;32;20112;-89
2023/06/23 01:27:51;;;;;;;19.10;12.32;;;;;;;26.21;60.58;99490.47;4415935;32;20105;-88
2023/06/23 01:30:17;;;;;;;14.90;13.30;;;;;;;26.26;60.59;99481.03;4431930;32;20070;-88
2023/06/23 01:32:50;;;;;;;14.70;12.55;;;;;;;26.22;60.59;99479.66;4414874;32;20292;-88
2023/06/23 01:35:21;;;;;;;15.25;11.68;;;;;;;26.20;60.59;99480.81;4426123;32;20107;-89
2023/06/23 01:37:47;;;;;;;18.98;13.18;;;;;;;26.17;60.58;99473.13;4413901;32;20100;-90
2023/06/23 01:40:15;;;;;;;16.05;13.13;;;;;;;26.21;60.59;99475.31;4411145;32;20598;-89
2023/06/23 01:42:44;;;;;;;16.00;12.27;;;;;;;26.06;60.58;99471.53;4413460;32;20131;-89
2023/06/23 01:45:10;;;;;;;16.15;12.23;;;;;;;25.96;60.57;99484.94;4409099;32;20120;-89
2023/06/23 01:47:38;;;;;;;19.10;12.40;;;;;;;25.95;60.58;99499.28;4396474;32;20345;-89
2023/06/23 01:50:04;;;;;;;14.98;12.88;;;;;;;25.93;60.58;99501.25;4413029;32;20097;-90
2023/06/23 01:52:30;;;;;;;20.92;13.00;;;;;;;25.89;60.57;99523.91;4417043;32;20176;-90
2023/06/23 01:54:56;;;;;;;17.23;12.25;;;;;;;25.87;60.58;99527.72;4412071;32;20105;-90
2023/06/23 01:57:21;;;;;;;15.18;11.95;;;;;;;26.00;60.58;99517.47;4412497;32;20109;-89
2023/06/23 01:59:47;;;;;;;18.20;13.27;;;;;;;25.91;60.57;99513.06;4399912;32;20135;-89
2023/06/23 02:02:13;;;;;;;21.90;13.45;;;;;;;25.85;60.57;99505.69;4425414;32;20425;-89
2023/06/23 02:04:40;;;;;;;19.02;12.52;;;;;;;25.93;60.57;99508.44;4411769;32;20430;-88
2023/06/23 02:07:05;;;;;;;14.90;11.88;;;;;;;25.88;60.57;99513.37;4411879;32;20119;-89
2023/06/23 02:09:32;;;;;;;15.98;12.43;;;;;;;25.72;60.57;99516.72;4412048;32;20161;-88
2023/06/23 02:11:57;;;;;;;17.33;11.98;;;;;;;25.76;60.56;99518.09;4425517;32;20093;-89
2023/06/23 02:14:23;;;;;;;14.60;12.00;;;;;;;25.67;60.56;99511.84;4412065;32;20143;-88
2023/06/23 02:16:48;;;;;;;17.52;13.10;;;;;;;25.73;60.56;99505.06;4412429;32;20121;-88
2023/06/23 02:19:15;;;;;;;19.02;12.40;;;;;;;25.75;60.57;99507.59;4411698;32;20105;-88
2023/06/23 02:21:41;;;;;;;18.80;12.25;;;;;;;25.73;60.57;99505.06;4412059;32;20139;-88
2023/06/23 02:24:07;;;;;;;14.70;12.90;;;;;;;25.70;60.55;99508.03;4411823;32;20082;-88
2023/06/23 02:26:36;;;;;;;16.40;12.85;;;;;;;25.68;60.56;99502.03;4411802;32;20123;-88
2023/06/23 02:29:02;;;;;;;13.57;11.80;;;;;;;25.65;60.56;99503.13;4425084;32;20180;-87
2023/06/23 02:31:27;;;;;;;16.45;12.07;;;;;;;25.68;60.56;99504.69;4414834;32;20113;-88
2023/06/23 02:33:52;;;;;;;17.20;13.27;;;;;;;25.66;60.56;99506.63;4424705;32;20384;-88
2023/06/23 02:36:22;;;;;;;15.65;11.60;;;;;;;25.72;60.56;99507.88;4412033;32;20098;-88
2023/06/23 02:38:48;;;;;;;14.07;11.55;;;;;;;25.63;60.56;99513.13;4411938;32;20152;-89
2023/06/23 02:41:16;;;;;;;17.87;12.07;;;;;;;25.64;60.56;99500.63;4412060;32;20117;-88
2023/06/23 02:43:44;;;;;;;14.98;12.00;;;;;;;25.59;60.56;99501.09;4424464;32;20524;-87
2023/06/23 02:46:10;;;;;;;15.85;12.05;;;;;;;25.51;60.55;99500.13;4412048;32;20204;-88
2023/06/23 02:48:37;;;;;;;17.70;12.65;;;;;;;25.49;60.56;99494.97;4399118;32;20094;-88
2023/06/23 02:51:02;;;;;;;16.15;12.50;;;;;;;25.57;60.55;99492.41;4400552;32;20179;-87
2023/06/23 02:53:34;;;;;;;14.70;12.15;;;;;;;25.53;60.55;99495.50;4411152;32;20097;-88
2023/06/23 02:56:05;;;;;;;16.70;11.75;;;;;;;25.61;60.55;99492.94;4413691;32;20092;-88
2023/06/23 02:58:31;;;;;;;14.55;11.15;;;;;;;25.59;60.55;99486.91;4415761;32;20133;-89
2023/06/23 03:00:57;;;;;;;16.70;12.15;;;;;;;25.60;60.55;99483.25;4399546;32;20524;-88
2023/06/23 03:03:22;;;;;;;14.38;11.70;;;;;;;25.56;60.55;99488.06;4444219;32;20446;-89
2023/06/23 03:05:49;;;;;;;14.27;12.07;;;;;;;25.55;60.56;99494.38;4422760;32;21089;-89
2023/06/23 03:08:16;;;;;;;17.95;12.77;;;;;;;25.58;60.55;99495.91;4414229;32;20124;-88
2023/06/23 03:10:42;;;;;;;16.48;11.93;;;;;;;25.53;60.55;99498.16;4386686;32;20133;-89
2023/06/23 03:13:08;;;;;;;17.70;12.05;;;;;;;25.51;60.55;99503.63;4379256;32;20452;-88
2023/06/23 03:15:33;;;;;;;14.98;11.82;;;;;;;25.48;60.56;99505.78;4403541;32;20152;-89
2023/06/23 03:18:16;;;;;;;20.85;11.85;;;;;;;25.40;60.55;99504.69;4408742;32;20161;-88
2023/06/23 03:20:48;;;;;;;14.40;11.77;;;;;;;25.47;60.56;99517.41;4409071;32;20135;-89
2023/06/23 03:23:14;;;;;;;16.05;11.07;;;;;;;25.46;60.54;99511.25;4395330;32;20400;-88
2023/06/23 03:25:43;;;;;;;15.30;11.63;;;;;;;25.56;60.55;99509.38;4415564;32;20121;-89
2023/06/23 03:28:09;;;;;;;15.05;11.00;;;;;;;25.67;60.56;99516.34;4397465;32;20101;-89
2023/06/23 03:30:39;;;;;;;16.17;11.35;;;;;;;25.65;60.56;99527.13;4411355;32;20492;-89
2023/06/23 03:33:09;;;;;;;16.37;11.50;;;;;;;25.63;60.56;99525.59;4418268;32;20059;-88
2023/06/23 03:35:38;;;;;;;14.68;10.35;;;;;;;25.73;60.56;99521.06;4404891;32;20074;-89
2023/06/23 03:38:03;;;;;;;14.37;11.10;;;;;;;25.86;60.58;99528.69;4414735;32;20109;-90
2023/06/23 03:40:31;;;;;;;14.35;11.30;;;;;;;25.87;60.57;99525.88;4416663;32;20395;-89
2023/06/23 03:43:02;;;;;;;15.68;10.35;;;;;;;25.96;60.57;99527.63;4404200;32;20141;-90
2023/06/23 03:45:28;;;;;;;14.20;11.02;;;;;;;26.06;60.58;99522.22;4378673;32;20079;-90
2023/06/23 03:48:00;;;;;;;13.60;10.68;;;;;;;26.07;60.58;99518.56;4388235;32;20129;-90
2023/06/23 03:50:27;;;;;;;14.90;10.75;;;;;;;26.20;60.58;99513.66;4411076;32;20114;-90
2023/06/23 03:52:53;;;;;;;17.08;10.75;;;;;;;26.23;60.58;99507.16;4408603;32;20116;-89
2023/06/23 03:55:19;;;;;;;11.23;9.48;;;;;;;26.21;60.59;99518.00;4408414;32;20120;-88
2023/06/23 03:57:44;;;;;;;15.45;11.23;;;;;;;26.29;60.59;99534.09;4421729;32;20133;-89
2023/06/23 04:00:10;;;;;;;17.10;11.38;;;;;;;26.38;60.59;99539.53;4409238;32;20401;-88
2023/06/23 04:02:35;;;;;;;14.77;11.02;;;;;;;26.45;60.60;99536.06;4398942;32;20381;-89
2023/06/23 04:05:01;;;;;;;14.07;10.02;;;;;;;26.53;60.60;99541.47;4400719;32;20101;-90
2023/06/23 04:07:27;;;;;;;15.65;10.57;;;;;;;26.68;60.61;99544.41;4413187;32;20098;-91
2023/06/23 04:09:53;;;;;;;13.30;9.93;;;;;;;26.71;60.61;99535.22;4379840;32;20102;-90
2023/06/23 04:12:24;;;;;;;19.52;10.55;;;;;;;26.87;60.61;99533.50;4413151;32;20094;-90
2023/06/23 04:14:51;;;;;;;17.92;10.20;;;;;;;26.91;60.62;99531.34;4425226;32;20093;-90
2023/06/23 04:17:17;;;;;;;14.50;9.40;;;;;;;26.99;60.62;99533.25;4425781;32;20107;-91
2023/06/23 04:19:44;;;;;;;14.00;10.43;;;;;;;27.06;60.63;99535.16;4412743;32;20110;-90
2023/06/23 04:22:10;;;;;;;11.98;9.80;;;;;;;27.18;60.63;99533.84;4413994;32;20145;-91
2023/06/23 04:24:37;;;;;;;13.55;10.23;;;;;;;27.26;60.63;99541.09;4413209;32;20093;-90
2023/06/23 04:27:03;;;;;;;11.18;9.63;;;;;;;27.38;60.65;99538.94;4426852;32;20123;-89
2023/06/23 04:29:28;;;;;;;13.57;10.55;;;;;;;27.45;60.65;99526.63;4426340;32;20120;-90
2023/06/23 04:31:54;;;;;;;12.23;9.95;;;;;;;27.56;60.65;99531.66;4413260;32;20100;-89
2023/06/23 04:34:19;;;;;;;14.65;10.38;;;;;;;27.66;60.66;99531.53;4421367;32;20108;-90
2023/06/23 04:37:15;;;;;;;13.55;9.63;;;;;;;27.71;60.66;99530.06;4407855;32;20168;-91
2023/06/23 04:39:49;;;;;;;14.87;10.85;;;;;;;27.84;60.67;99526.91;4416692;32;20094;-91
2023/06/23 04:42:15;;;;;;;13.93;10.00;;;;;;;27.92;60.68;99524.25;4413498;32;20102;-90
2023/06/23 04:44:48;;;;;;;13.77;9.90;;;;;;;27.93;60.68;99517.06;4401274;32;20476;-88
2023/06/23 04:47:14;;;;;;;11.88;9.48;;;;;;;28.05;60.68;99526.41;4413721;32;20386;-88
2023/06/23 04:49:39;;;;;;;15.18;9.60;;;;;;;28.09;60.68;99514.38;4425381;32;20131;-87
2023/06/23 04:52:05;;;;;;;13.65;9.73;;;;;;;28.07;60.67;99505.69;4411829;32;20089;-87
2023/06/23 04:54:40;;;;;;;14.45;9.50;;;;;;;28.07;60.67;99521.72;4414070;32;20073;-88
2023/06/23 04:57:14;;;;;;;12.25;9.75;;;;;;;28.28;60.69;99524.78;4417927;32;20113;-89
2023/06/23 04:59:40;;;;;;;12.90;9.38;;;;;;;28.29;60.69;99523.78;4427623;32;20073;-89
2023/06/23 05:02:05;;;;;;;13.75;9.57;;;;;;;28.31;60.70;99513.72;4412870;32;20107;-89
2023/06/23 05:04:32;;;;;;;14.43;10.32;;;;;;;28.40;60.70;99519.94;4415043;32;20425;-89
2023/06/23 05:06:58;;;;;;;12.75;8.98;;;;;;;28.49;60.70;99526.09;4412120;32;20481;-89
2023/06/23 05:09:23;;;;;;;12.82;9.45;;;;;;;28.59;60.70;99516.88;4412014;32;20172;-89
2023/06/23 05:11:49;;;;;;;11.73;9.15;;;;;;;28.72;60.72;99511.84;4412962;32;20139;-89
2023/06/23 05:14:15;;;;;;;13.48;9.30;;;;;;;28.73;60.72;99510.00;4412376;32;20416;-90
2023/06/23 05:16:42;;;;;;;13.98;9.07;;;;;;;28.84;60.71;99498.06;4425887;32;20158;-89
2023/06/23 05:19:08;;;;;;;14.48;9.75;;;;;;;28.95;60.73;99511.13;4412829;32;20171;-90
2023/06/23 05:21:34;;;;;;;11.95;9.57;;;;;;;28.88;60.72;99518.19;4425463;32;20164;-90
2023/06/23 05:23:59;;;;;;;13.40;9.45;;;;;;;29.09;60.73;99520.28;4402632;32;20450;-89
2023/06/23 05:26:25;;;;;;;15.48;9.52;;;;;;;29.08;60.73;99523.97;4413122;32;20109;-90
2023/06/23 05:28:52;;;;;;;12.85;9.40;;;;;;;29.25;60.75;99512.19;4412736;32;20110;-89
2023/06/23 05:31:18;;;;;;;13.02;9.00;;;;;;;29.34;60.75;99521.87;4412540;32;20086;-89
2023/06/23 05:33:43;;;;;;;10.63;9.05;;;;;;;29.33;60.74;99517.50;4399410;32;20145;-89
2023/06/23 05:36:10;;;;;;;14.35;9.18;;;;;;;29.40;60.74;99523.84;4425104;32;20136;-89
2023/06/23 05:38:36;;;;;;;13.77;9.55;;;;;;;29.45;60.75;99524.19;4422665;32;20219;-89
2023/06/23 05:41:02;;;;;;;17.35;9.25;;;;;;;29.70;60.76;99521.34;4394622;32;20094;-89
2023/06/23 05:43:27;;;;;;;20.67;10.25;;;;;;;29.69;60.77;99520.53;4410628;32;20105;-89
2023/06/23 05:45:53;;;;;;;15.35;9.95;;;;;;;29.56;60.75;99521.09;4402632;32;20180;-89
2023/06/23 05:48:27;;;;;;;13.48;10.27;;;;;;;29.73;60.77;99519.16;4419636;32;20413;-89
2023/06/23 05:50:52;;;;;;;15.85;10.15;;;;;;;29.80;60.76;99519.28;4418826;32;20115;-89
2023/06/23 05:53:19;;;;;;;14.23;10.57;;;;;;;29.84;60.77;99509.88;4409579;32;20129;-89
2023/06/23 05:56:00;;;;;;;14.73;9.82;;;;;;;29.87;60.77;99515.72;4416815;32;20117;-89
2023/06/23 05:58:28;;;;;;;14.23;9.60;;;;;;;29.81;60.78;99519.13;4419320;32;20145;-89
2023/06/23 06:00:54;;;;;;;14.30;10.10;;;;;;;30.03;60.78;99504.03;4412869;32;20105;-90
2023/06/23 06:03:21;;;;;;;14.05;10.15;;;;;;;30.13;60.79;99501.12;4412491;32;20165;-89
2023/06/23 06:05:49;;;;;;;14.27;11.15;;;;;;;30.11;60.78;99503.16;4396407;32;20442;-89
2023/06/23 06:08:14;;;;;;;14.27;11.15;;;;;;;30.07;60.78;99508.06;4413440;32;20504;-89
2023/06/23 06:10:40;;;;;;;13.13;10.48;;;;;;;30.14;60.79;99502.78;4424557;32;20119;-90
2023/06/23 06:13:05;;;;;;;18.27;10.15;;;;;;;30.34;60.80;99506.63;4392313;32;20110;-89
2023/06/23 06:15:31;;;;;;;14.48;10.38;;;;;;;30.58;60.80;99494.00;4390653;32;20110;-90
2023/06/23 06:17:58;;;;;;;17.10;10.90;;;;;;;30.68;60.82;99487.34;4423495;32;20097;-90
2023/06/23 06:20:23;;;;;;;20.23;10.45;;;;;;;30.60;60.81;99481.22;4411843;32;20095;-89
2023/06/23 06:22:50;;;;;;;17.75;11.02;;;;;;;30.81;60.82;99474.09;4411880;32;20149;-90
2023/06/23 06:25:15;;;;;;;12.70;10.35;;;;;;;30.94;60.83;99472.59;4412355;32;20109;-90
2023/06/23 06:27:42;;;;;;;14.52;10.75;;;;;;;30.85;60.83;99478.09;4425010;32;20134;-90
2023/06/23 06:30:08;;;;;;;14.00;10.57;;;;;;;30.89;60.82;99473.16;4425330;32;20081;-90
2023/06/23 06:32:37;;;;;;;18.70;10.60;;;;;;;30.90;60.82;99474.00;4413097;32;20576;-90
2023/06/23 06:35:05;;;;;;;20.92;12.60;;;;;;;31.08;60.82;99474.47;4415299;32;20723;-90
2023/06/23 06:37:36;;;;;;;24.83;14.80;;;;;;;31.15;60.83;99469.97;4428322;32;20109;-91
2023/06/23 06:40:04;;;;;;;23.33;15.45;;;;;;;31.26;60.84;99466.84;4401477;32;20089;-89
2023/06/23 06:42:29;;;;;;;18.75;14.07;;;;;;;31.30;60.84;99464.62;4421614;32;20092;-90
2023/06/23 06:44:54;;;;;;;13.90;11.38;;;;;;;31.39;60.84;99452.72;4429276;32;20109;-90
2023/06/23 06:47:20;;;;;;;17.73;12.00;;;;;;;31.67;60.86;99447.41;4404494;32;20762;-90
2023/06/23 06:49:45;;;;;;;21.98;17.95;;;;;;;31.90;60.87;99445.37;4401950;32;20107;-91
2023/06/23 06:52:11;;;;;;;18.23;11.90;;;;;;;31.97;60.88;99448.97;4412025;32;20101;-91
2023/06/23 06:54:36;;;;;;;15.60;10.98;;;;;;;32.22;60.89;99445.88;4412260;32;20120;-93
2023/06/23 06:57:02;;;;;;;18.30;12.25;;;;;;;32.42;60.90;99457.66;4405759;32;20109;-93
2023/06/23 06:59:27;;;;;;;16.40;12.05;;;;;;;32.36;60.89;99466.50;4406949;32;20157;-91
2023/06/23 07:01:53;;;;;;;20.17;11.60;;;;;;;32.71;60.92;99461.97;4412901;32;20133;-93
2023/06/23 07:04:19;;;;;;;15.05;12.45;;;;;;;32.77;60.91;99454.94;4412313;32;20159;-91
2023/06/23 07:06:51;;;;;;;16.27;11.43;;;;;;;32.99;60.92;99459.22;4382230;32;20094;-92
2023/06/23 07:09:16;;;;;;;20.15;12.43;;;;;;;33.09;60.94;99456.97;4404365;32;20115;-91
2023/06/23 07:11:42;;;;;;;19.37;12.60;;;;;;;32.98;60.93;99465.66;4424804;32;20114;-91
2023/06/23 07:14:07;;;;;;;15.88;11.98;;;;;;;33.23;60.94;99460.56;4425547;32;20133;-91
2023/06/23 07:16:33;;;;;;;17.98;12.37;;;;;;;33.45;60.95;99453.19;4426155;32;20465;-92
2023/06/23 07:18:59;;;;;;;18.30;12.23;;;;;;;33.61;60.96;99450.13;4414028;32;20082;-91
2023/06/23 07:21:24;;;;;;;20.90;12.60;;;;;;;33.66;60.96;99447.63;4413077;32;20529;-90
2023/06/23 07:23:50;;;;;;;19.65;12.68;;;;;;;33.60;60.96;99445.78;4424804;32;20098;-90
2023/06/23 07:26:15;;;;;;;17.00;11.88;;;;;;;33.66;60.97;99446.81;4425343;32;20143;-90
2023/06/23 07:28:41;;;;;;;14.82;12.88;;;;;;;33.79;60.97;99454.91;4412773;32;20093;-90
2023/06/23 07:31:06;;;;;;;18.08;12.85;;;;;;;33.61;60.96;99447.44;4423943;32;20169;-90
2023/06/23 07:33:32;;;;;;;16.70;13.52;;;;;;;33.76;60.97;99442.66;4410265;32;20116;-90
2023/06/23 07:35:57;;;;;;;16.02;13.07;;;;;;;33.61;60.96;99450.13;4392732;32;20099;-90
2023/06/23 07:38:22;;;;;;;15.75;13.95;;;;;;;33.71;60.96;99447.03;4423373;32;20187;-90
2023/06/23 07:40:48;;;;;;;17.90;12.88;;;;;;;33.67;60.97;99449.31;4410632;32;20161;-89
2023/06/23 07:43:13;;;;;;;17.45;13.43;;;;;;;33.63;60.96;99456.16;4411015;32;20133;-89
2023/06/23 07:45:39;;;;;;;16.60;12.07;;;;;;;33.83;60.97;99445.34;4423798;32;20097;-90
2023/06/23 07:48:04;;;;;;;19.95;13.25;;;;;;;33.89;60.97;99441.06;4410886;32;20166;-90
2023/06/23 07:50:30;;;;;;;23.67;13.88;;;;;;;34.07;60.98;99442.09;4423864;32;20125;-90
2023/06/23 07:52:55;;;;;;;17.70;13.65;;;;;;;34.24;60.99;99447.88;4410786;32;20204;-90
2023/06/23 07:55:21;;;;;;;19.80;13.68;;;;;;;34.36;60.99;99435.44;4410879;32;20481;-91
2023/06/23 07:57:47;;;;;;;18.30;13.45;;;;;;;34.40;61.00;99447.50;4413372;32;20093;-89
2023/06/23 08:00:13;;;;;;;21.90;14.55;;;;;;;34.46;61.00;99446.63;4410853;32;20385;-90
2023/06/23 08:02:38;;;;;;;20.77;14.10;;;;;;;34.37;60.99;99441.69;4423784;32;20109;-89
2023/06/23 08:05:04;;;;;;;22.52;14.27;;;;;;;34.52;61.00;99444.94;4403714;32;20180;-90
2023/06/23 08:07:29;;;;;;;15.88;13.70;;;;;;;34.63;61.02;99444.31;4423630;32;20108;-91
2023/06/23 08:09:54;;;;;;;16.12;12.37;;;;;;;34.73;61.01;99443.88;4423919;32;20133;-88
2023/06/23 08:12:20;;;;;;;19.08;13.18;;;;;;;35.03;61.04;99433.41;4423514;32;20165;-88
2023/06/23 08:14:45;;;;;;;19.73;13.30;;;;;;;35.28;61.05;99431.63;4411552;32;20103;-88
2023/06/23 08:17:11;;;;;;;19.60;14.43;;;;;;;35.49;61.05;99435.91;4415401;32;20094;-89
2023/06/23 08:19:37;;;;;;;20.77;14.00;;;;;;;35.26;61.04;99438.28;4404745;32;20151;-89
2023/06/23 08:22:03;;;;;;;15.68;13.02;;;;;;;35.03;61.04;99444.22;4423350;32;20142;-90
2023/06/23 08:24:29;;;;;;;25.10;15.18;;;;;;;35.10;61.04;99438.78;4411275;32;20132;-90
2023/06/23 08:26:54;;;;;;;16.73;13.65;;;;;;;35.23;61.04;99438.69;4412795;32;20464;-90
2023/06/23 08:29:19;;;;;;;18.37;15.00;;;;;;;35.29;61.04;99429.72;4400659;32;20109;-88
2023/06/23 08:31:45;;;;;;;18.20;14.18;;;;;;;35.11;61.04;99429.63;4428785;32;20435;-88
2023/06/23 08:34:11;;;;;;;17.42;15.02;;;;;;;35.23;61.04;99431.41;4423752;32;20097;-87
2023/06/23 08:36:36;;;;;;;17.70;13.00;;;;;;;35.32;61.04;99434.72;4398561;32;20098;-87
2023/06/23 08:39:02;;;;;;;16.05;13.85;;;;;;;35.28;61.05;99434.31;4411860;32;20123;-90
2023/06/23 08:41:27;;;;;;;17.73;13.35;;;;;;;35.45;61.06;99440.06;4425520;32;20902;-89
2023/06/23 08:43:53;;;;;;;17.08;14.45;;;;;;;35.71;61.06;99432.81;4411570;32;20438;-90
2023/06/23 08:46:19;;;;;;;16.52;13.48;;;;;;;35.81;61.07;99436.69;4413439;32;20219;-87
2023/06/23 08:48:50;;;;;;;19.42;13.82;;;;;;;36.03;61.08;99437.19;4410149;32;20158;-90
2023/06/23 08:51:16;;;;;;;19.00;14.02;;;;;;;36.11;61.08;99427.94;4413525;32;20186;-89
2023/06/23 08:53:42;;;;;;;15.02;13.10;;;;;;;36.42;61.10;99422.44;4412082;32;24816;-89
2023/06/23 08:56:08;;;;;;;20.67;14.25;;;;;;;36.34;61.10;99428.16;4412594;32;20112;-89
2023/06/23 08:58:33;;;;;;;22.27;14.90;;;;;;;36.39;61.09;99422.06;4425442;32;20089;-89
2023/06/23 09:00:59;;;;;;;18.12;14.05;;;;;;;36.51;61.10;99431.94;4400253;32;20492;-90
2023/06/23 09:03:24;;;;;;;19.75;13.52;;;;;;;36.64;61.11;99436.37;4394720;32;20133;-89
2023/06/23 09:05:50;;;;;;;19.80;14.87;;;;;;;36.65;61.12;99439.91;4407732;32;20153;-90
2023/06/23 09:08:17;;;;;;;19.95;14.07;;;;;;;36.72;61.12;99444.25;4422944;32;20134;-88
2023/06/23 09:10:42;;;;;;;19.52;14.32;;;;;;;36.72;61.12;99441.53;4408708;32;20175;-89
2023/06/23 09:13:08;;;;;;;21.08;15.75;;;;;;;36.76;61.11;99437.31;4424754;32;20237;-89
2023/06/23 09:15:36;;;;;;;15.90;13.67;;;;;;;36.71;61.12;99437.16;4439294;32;20077;-87
2023/06/23 09:18:02;;;;;;;17.35;15.02;;;;;;;36.46;61.10;99444.53;4413384;32;20181;-89
2023/06/23 09:20:29;;;;;;;16.70;15.00;;;;;;;36.50;61.11;99453.88;4413595;32;20166;-89
2023/06/23 09:22:54;;;;;;;19.37;14.90;;;;;;;36.46;61.10;99445.34;4426805;32;20530;-88
2023/06/23 09:25:39;;;;;;;16.42;14.73;;;;;;;36.52;61.10;99441.75;4413679;32;33179;-89
2023/06/23 09:28:05;;;;;;;19.42;14.87;;;;;;;36.41;61.11;99450.59;4436131;32;20116;-88
2023/06/23 09:30:36;;;;;;;18.15;15.85;;;;;;;36.34;61.10;99443.59;4419962;32;20149;-89
2023/06/23 09:33:05;;;;;;;19.42;14.70;;;;;;;36.21;61.09;99439.94;4426327;32;20097;-88
2023/06/23 09:35:30;;;;;;;16.90;14.90;;;;;;;35.80;61.07;99453.19;4426634;32;20094;-89
2023/06/23 09:37:57;;;;;;;18.87;14.68;;;;;;;35.68;61.07;99455.75;4413901;32;20104;-89
2023/06/23 09:40:26;;;;;;;18.80;15.02;;;;;;;35.93;61.08;99453.91;4413927;32;25198;-89
2023/06/23 09:43:01;;;;;;;20.55;15.10;;;;;;;36.07;61.08;99453.81;4415205;32;20061;-88
2023/06/23 09:45:26;;;;;;;20.65;16.80;;;;;;;36.11;61.09;99455.03;4433664;32;20084;-89
2023/06/23 09:47:51;;;;;;;20.92;14.48;;;;;;;36.20;61.09;99453.69;4440544;32;20102;-88
2023/06/23 09:50:20;;;;;;;21.17;15.57;;;;;;;36.22;61.09;99452.44;4429055;32;20351;-88
2023/06/23 09:52:45;;;;;;;21.12;14.50;;;;;;;36.23;61.10;99461.41;4413976;32;20106;-89
2023/06/23 09:55:11;;;;;;;20.48;14.93;;;;;;;36.12;61.09;99462.09;4425340;32;23672;-89
2023/06/23 09:57:36;;;;;;;17.85;14.80;;;;;;;36.07;61.08;99472.78;4413104;32;20133;-89
2023/06/23 10:00:03;;;;;;;17.98;14.63;;;;;;;35.93;61.08;99472.88;4425739;32;20106;-89
2023/06/23 10:02:29;;;;;;;20.48;15.35;;;;;;;36.02;61.09;99473.44;4416009;32;20107;-89
2023/06/23 10:05:05;;;;;;;20.02;14.63;;;;;;;36.05;61.09;99467.59;4434826;32;20145;-87
2023/06/23 10:07:31;;;;;;;16.10;13.65;;;;;;;36.04;61.09;99460.50;4440214;32;20082;-88
2023/06/23 10:10:04;;;;;;;18.10;14.18;;;;;;;36.02;61.09;99462.63;4425851;32;20451;-89
2023/06/23 10:12:30;;;;;;;22.95;14.10;;;;;;;36.01;61.09;99469.09;4414116;32;20535;-88
2023/06/23 10:14:56;;;;;;;16.17;14.48;;;;;;;36.08;61.09;99467.16;4414209;32;20089;-89
2023/06/23 10:17:22;;;;;;;18.25;13.90;;;;;;;35.87;61.07;99473.75;4413956;32;20089;-90
2023/06/23 10:19:48;;;;;;;17.45;13.05;;;;;;;35.90;61.09;99470.59;4438058;32;20070;-89
2023/06/23 10:22:18;;;;;;;20.12;14.50;;;;;;;36.30;61.11;99459.44;4429878;32;20097;-90
2023/06/23 10:24:45;;;;;;;19.65;14.20;;;;;;;36.25;61.09;99456.59;4428970;32;20057;-87
2023/06/23 10:27:10;;;;;;;16.52;13.77;;;;;;;36.24;61.10;99457.63;4407537;32;20093;-90
2023/06/23 10:29:38;;;;;;;23.60;13.88;;;;;;;36.19;61.09;99461.00;4426258;32;29155;-90
2023/06/23 10:32:03;;;;;;;19.33;14.18;;;;;;;36.09;61.09;99459.84;4413874;32;20119;-89
2023/06/23 10:34:29;;;;;;;18.67;14.95;;;;;;;36.00;61.09;99455.75;4413498;32;20120;-88
2023/06/23 10:36:56;;;;;;;21.00;16.15;;;;;;;36.17;61.10;99463.09;4415147;32;20131;-89
2023/06/23 10:39:22;;;;;;;22.37;16.02;;;;;;;36.27;61.10;99463.44;4415596;32;20093;-87
2023/06/23 10:41:47;;;;;;;21.20;15.23;;;;;;;36.24;61.11;99452.22;4415485;32;20144;-88
2023/06/23 10:44:12;;;;;;;23.62;15.82;;;;;;;36.37;61.10;99448.56;4426373;32;23882;-90
2023/06/23 10:46:38;;;;;;;19.83;14.57;;;;;;;36.28;61.10;99454.25;4424267;32;29979;-89
2023/06/23 10:49:07;;;;;;;18.33;15.30;;;;;;;36.09;61.09;99439.00;4425522;32;20123;-90
2023/06/23 10:51:33;;;;;;;21.25;14.32;;;;;;;36.18;61.09;99444.94;4414158;32;20174;-89
2023/06/23 10:54:00;;;;;;;20.88;13.07;;;;;;;36.31;61.09;99444.03;4412257;32;28249;-90
2023/06/23 10:56:36;;;;;;;16.87;12.73;;;;;;;36.32;61.10;99432.16;4414224;32;20065;-90
2023/06/23 10:59:21;;;;;;;22.33;13.10;;;;;;;36.43;61.11;99425.97;4414546;32;20169;-88
2023/06/23 11:01:59;;;;;;;16.20;12.60;;;;;;;36.20;61.10;99432.88;4425776;32;20132;-89
2023/06/23 11:04:26;;;;;;;18.08;13.27;;;;;;;36.11;61.09;99431.47;4425796;32;20453;-89
2023/06/23 11:07:05;;;;;;;14.65;11.57;;;;;;;36.11;61.09;99430.66;4415209;32;20385;-88
2023/06/23 11:09:54;;;;;;;19.10;12.10;;;;;;;36.33;61.10;99421.09;4426196;32;20146;-90
2023/06/23 11:12:36;;;;;;;16.40;10.43;;;;;;;36.50;61.11;99424.88;4413980;32;20152;-89
2023/06/23 11:15:08;;;;;;;17.27;11.45;;;;;;;36.64;61.12;99427.41;4425628;32;20151;-89
2023/06/23 11:17:44;;;;;;;19.40;12.85;;;;;;;36.72;61.12;99429.84;4439378;32;20086;-89
2023/06/23 11:20:19;;;;;;;21.12;13.38;;;;;;;36.94;61.13;99427.53;4412859;32;20097;-89